Time;durP1;ratioP1;P1;durP2;ratioP2;P2;SDS_P1;SDS_P2;PMS_P1;PMS_P2;Temp;Humidity;BMP_temperature;BMP_pressure;BME280_temperature;BME280_humidity;BME280_pressure;Samples;Min_cycle;Max_cycle;Signal;HPM_P1;HPM_P2
2022/06/14 18:13:44;;;;;;;0.70;0.70;;;;;;;19.98;52.80;94610.69;2534931;54;52192;-79
2022/06/14 18:16:18;;;;;;;0.90;0.90;;;;;;;20.02;52.28;94608.53;2617703;54;20156;-85
2022/06/14 18:18:55;;;;;;;0.90;0.90;;;;;;;19.63;51.09;94518.16;2618310;54;20169;-87
2022/06/14 18:21:40;;;;;;;0.75;0.75;;;;;;;20.91;52.29;94734.66;2617819;54;20161;-86
2022/06/14 18:24:13;;;;;;;0.80;0.80;;;;;;;19.87;52.33;94633.72;2617252;47;20183;-87
2022/06/14 18:26:45;;;;;;;1.23;1.10;;;;;;;20.42;52.58;94713.34;2617854;47;20145;-87
2022/06/14 18:29:23;;;;;;;1.13;1.13;;;;;;;19.65;53.14;94642.44;2616368;54;20208;-87
2022/06/14 18:32:10;;;;;;;1.08;1.08;;;;;;;18.85;53.04;94499.72;2617098;54;20153;-85
2022/06/14 18:34:43;;;;;;;1.15;1.05;;;;;;;20.56;53.27;94759.31;2618214;54;20144;-85
2022/06/14 18:37:33;;;;;;;0.73;0.73;;;;;;;20.18;53.82;94745.75;2617641;47;20149;-86
2022/06/14 18:40:09;;;;;;;0.75;0.75;;;;;;;19.41;53.86;94653.91;2616148;54;20153;-85
2022/06/14 18:43:13;;;;;;;0.80;0.80;;;;;;;20.06;54.92;94763.03;2615642;54;20292;-86
2022/06/14 18:45:51;;;;;;;2.77;1.40;;;;;;;20.02;54.84;94752.25;2617130;54;20159;-78
2022/06/14 18:48:41;;;;;;;0.82;0.82;;;;;;;20.16;55.38;94772.34;2617599;54;20144;-80
2022/06/14 18:51:24;;;;;;;1.30;1.30;;;;;;;19.73;54.83;94751.59;2617801;54;20179;-87
2022/06/14 18:53:59;;;;;;;1.13;0.95;;;;;;;20.04;55.04;94789.63;2618818;31;20630;-86
2022/06/14 18:56:32;;;;;;;1.05;1.00;;;;;;;19.46;55.06;94744.38;2617767;47;20153;-77
2022/06/14 18:59:04;;;;;;;3.33;1.42;;;;;;;19.80;55.21;94753.03;2617642;47;20187;-79
2022/06/14 19:01:38;;;;;;;0.90;0.90;;;;;;;20.11;54.88;94790.31;2617827;47;20148;-78
2022/06/14 19:04:14;;;;;;;0.60;0.60;;;;;;;19.84;54.77;94787.50;2618113;54;20164;-78
2022/06/14 19:07:10;;;;;;;1.23;1.23;;;;;;;19.97;55.21;94793.22;2617751;54;20149;-86
2022/06/14 19:09:54;;;;;;;4.13;1.90;;;;;;;19.89;54.36;94788.22;2618410;54;20662;-87
2022/06/14 19:12:35;;;;;;;2.72;1.05;;;;;;;19.55;54.51;94760.22;2618540;47;20248;-87
2022/06/14 19:15:29;;;;;;;1.48;1.40;;;;;;;19.55;54.45;94760.22;2618926;47;20145;-87
2022/06/14 19:18:15;;;;;;;1.40;1.07;;;;;;;19.78;54.82;94804.03;2618369;54;20168;-86
2022/06/14 19:20:51;;;;;;;0.60;0.60;;;;;;;19.66;54.75;94796.13;2618089;54;20164;-86
2022/06/14 19:23:44;;;;;;;1.13;1.13;;;;;;;20.01;56.30;94810.47;2616962;47;20153;-85
2022/06/14 19:26:28;;;;;;;1.63;1.52;;;;;;;19.81;54.62;94765.25;2616835;47;20915;-78
2022/06/14 19:29:33;;;;;;;1.17;0.93;;;;;;;19.73;55.38;94806.19;2617175;46;20161;-79
2022/06/14 19:32:08;;;;;;;1.25;1.20;;;;;;;19.70;55.70;94798.28;2617418;47;20153;-88
2022/06/14 19:34:47;;;;;;;1.60;1.50;;;;;;;19.32;55.12;94742.22;2617521;54;20908;-86
2022/06/14 19:37:21;;;;;;;1.03;1.03;;;;;;;19.80;55.61;94821.28;2616895;47;20152;-79
2022/06/14 19:39:54;;;;;;;1.30;1.30;;;;;;;19.78;54.42;94836.38;2617276;47;20240;-77
2022/06/14 19:42:31;;;;;;;4.57;1.38;;;;;;;19.51;55.03;94803.31;2617470;54;20159;-78
2022/06/14 19:45:08;;;;;;;2.00;1.50;;;;;;;19.93;55.51;94839.25;2617389;47;20179;-78
2022/06/14 19:47:41;;;;;;;1.40;1.40;;;;;;;19.24;55.76;94781.72;2617505;54;20679;-78
2022/06/14 19:50:20;;;;;;;1.30;1.30;;;;;;;19.60;56.11;94816.25;2617736;39;20544;-76
2022/06/14 19:52:54;;;;;;;1.27;1.20;;;;;;;19.82;56.56;94836.34;2617416;54;20228;-79
2022/06/14 19:55:36;;;;;;;2.22;1.52;;;;;;;19.63;55.56;94803.31;2617690;54;20672;-78
2022/06/14 19:58:28;;;;;;;1.00;0.90;;;;;;;19.54;54.99;94833.50;2617418;51;20189;-77
2022/06/14 20:01:05;;;;;;;1.10;1.10;;;;;;;19.30;55.39;94773.09;2617378;54;20161;-78
2022/06/14 20:03:39;;;;;;;1.50;1.50;;;;;;;19.40;55.23;94770.25;2617450;54;20156;-77
2022/06/14 20:06:28;;;;;;;1.65;1.33;;;;;;;19.44;55.31;94793.94;2617219;47;20170;-78
2022/06/14 20:08:59;;;;;;;1.10;1.10;;;;;;;19.62;57.32;94824.13;2617493;47;20152;-78
2022/06/14 20:14:13;;;;;;;1.47;1.40;;;;;;;19.33;56.17;94852.09;2617214;47;20184;-77
2022/06/14 20:16:57;;;;;;;1.40;1.33;;;;;;;18.90;56.38;94791.69;2617773;47;20161;-85
2022/06/14 20:19:32;;;;;;;1.27;1.27;;;;;;;18.95;56.86;94821.13;2618373;54;20669;-85
2022/06/14 20:22:10;;;;;;;1.70;1.30;;;;;;;18.44;56.46;94749.22;2617543;54;20160;-77
2022/06/14 20:24:51;;;;;;;1.20;1.10;;;;;;;19.29;55.77;94840.56;2617699;47;20145;-77
2022/06/14 20:27:21;;;;;;;0.80;0.73;;;;;;;19.52;55.34;94845.69;2618440;39;20537;-78
2022/06/14 20:30:01;;;;;;;2.03;1.20;;;;;;;19.15;55.27;94793.19;2617667;47;20145;-77
2022/06/14 20:32:43;;;;;;;1.93;1.83;;;;;;;18.84;55.40;94759.41;2617971;47;20149;-85
2022/06/14 20:35:13;;;;;;;1.25;1.25;;;;;;;19.24;54.65;94845.63;2617635;54;20161;-86
2022/06/14 20:38:01;;;;;;;0.80;0.80;;;;;;;18.47;55.55;94707.63;2617701;47;20181;-86
2022/06/14 20:40:34;;;;;;;0.90;0.90;;;;;;;19.56;54.13;94850.69;2617096;54;20164;-78
2022/06/14 20:43:04;;;;;;;1.47;1.37;;;;;;;19.76;55.67;94850.00;2617560;47;20145;-78
2022/06/14 20:45:36;;;;;;;1.13;1.10;;;;;;;19.54;53.79;94847.84;2616550;54;20149;-78
2022/06/14 20:48:08;;;;;;;2.60;1.27;;;;;;;19.39;54.67;94821.22;2617728;31;20665;-78
2022/06/14 20:50:48;;;;;;;1.57;1.27;;;;;;;19.36;54.42;94821.94;2617367;47;20157;-85
2022/06/14 20:53:20;;;;;;;1.53;1.43;;;;;;;19.30;55.10;94814.03;2618382;54;20159;-85
2022/06/14 20:55:51;;;;;;;0.60;0.60;;;;;;;18.97;53.36;94795.31;2618594;47;20145;-86
2022/06/14 20:58:31;;;;;;;0.65;0.65;;;;;;;19.23;54.41;94840.59;2618737;54;20164;-85
2022/06/14 21:01:02;;;;;;;1.00;1.00;;;;;;;18.96;54.28;94817.56;2618448;54;20160;-77
2022/06/14 21:03:32;;;;;;;1.03;1.03;;;;;;;19.17;53.97;94844.88;2618109;54;20155;-77
2022/06/14 21:06:04;;;;;;;1.20;1.20;;;;;;;18.99;54.23;94841.25;2617474;54;20666;-77
2022/06/14 21:08:50;;;;;;;1.17;1.17;;;;;;;18.96;56.02;94839.78;2617056;47;20762;-78
2022/06/14 21:11:37;;;;;;;1.17;1.17;;;;;;;18.97;55.24;94861.31;2617252;47;20184;-85
2022/06/14 21:14:12;;;;;;;1.13;1.13;;;;;;;18.84;55.52;94863.44;2618232;54;20211;-85
2022/06/14 21:16:45;;;;;;;1.30;1.20;;;;;;;18.90;56.38;94871.31;2619773;54;20148;-85
2022/06/14 21:19:16;;;;;;;0.90;0.90;;;;;;;18.74;57.39;94820.31;2618743;54;20190;-84
2022/06/14 21:21:49;;;;;;;1.13;1.03;;;;;;;18.95;55.57;94824.00;2618508;47;20157;-86
2022/06/14 21:24:22;;;;;;;0.90;0.90;;;;;;;18.89;54.00;94878.50;2619103;54;20161;-85
2022/06/14 21:27:03;;;;;;;1.10;1.10;;;;;;;18.89;54.98;94878.50;2619386;47;20236;-85
2022/06/14 21:29:34;;;;;;;1.37;1.27;;;;;;;18.54;53.47;94838.16;2618834;46;20145;-86
2022/06/14 21:32:06;;;;;;;1.00;1.00;;;;;;;18.42;56.62;94804.41;2618673;54;20153;-84
2022/06/14 21:34:36;;;;;;;1.70;1.13;;;;;;;18.98;55.71;94863.47;2617938;54;20344;-86
2022/06/14 21:37:06;;;;;;;0.67;0.67;;;;;;;19.03;53.95;94878.56;2617019;47;20160;-77
2022/06/14 21:39:42;;;;;;;1.30;1.20;;;;;;;18.61;53.62;94827.44;2617603;47;20236;-78
2022/06/14 21:42:21;;;;;;;2.27;1.13;;;;;;;18.67;54.67;94838.97;2618310;47;20210;-86
2022/06/14 21:44:52;;;;;;;2.40;1.30;;;;;;;18.42;56.94;94832.38;2619333;54;20161;-86
2022/06/14 21:47:24;;;;;;;0.90;0.90;;;;;;;17.66;53.23;94758.81;2619222;54;20160;-85
2022/06/14 21:49:55;;;;;;;1.23;1.13;;;;;;;18.36;54.19;94833.03;2619771;54;20200;-85
2022/06/14 21:52:33;;;;;;;1.80;0.90;;;;;;;18.33;53.50;94883.19;2617667;47;20671;-78
2022/06/14 21:55:09;;;;;;;1.07;0.97;;;;;;;18.16;55.24;94881.66;2617618;47;20149;-85
2022/06/14 21:57:42;;;;;;;0.83;0.83;;;;;;;18.19;54.93;94842.97;2618542;54;20163;-86
2022/06/14 22:00:35;;;;;;;0.93;0.93;;;;;;;18.25;54.15;94883.16;2618906;47;20153;-85
2022/06/14 22:03:24;;;;;;;1.00;1.00;;;;;;;18.41;55.33;94873.94;2618175;54;20248;-85
2022/06/14 22:05:53;;;;;;;0.70;0.70;;;;;;;18.20;53.60;94875.94;2618295;39;20531;-86
2022/06/14 22:08:24;;;;;;;0.77;0.77;;;;;;;18.08;54.96;94812.81;2618167;47;20213;-85
2022/06/14 22:10:57;;;;;;;2.33;1.10;;;;;;;18.26;53.59;94841.59;2617983;47;20728;-85
2022/06/14 22:13:28;;;;;;;0.87;0.87;;;;;;;18.51;52.00;94873.28;2618415;54;20176;-84
2022/06/14 22:15:57;;;;;;;0.80;0.80;;;;;;;17.99;52.78;94806.31;2618096;47;20149;-77
2022/06/14 22:18:26;;;;;;;0.80;0.80;;;;;;;17.03;55.46;94650.25;2617971;54;20164;-78
2022/06/14 22:20:57;;;;;;;1.00;1.00;;;;;;;18.57;52.47;94847.50;2617932;54;20153;-85
2022/06/14 22:23:27;;;;;;;0.80;0.80;;;;;;;18.48;50.78;94879.00;2617320;54;20684;-86
2022/06/14 22:25:57;;;;;;;0.77;0.77;;;;;;;18.28;52.65;94887.47;2617569;54;20157;-78
2022/06/14 22:28:26;;;;;;;0.80;0.80;;;;;;;18.20;53.32;94852.28;2617917;54;20153;-77
2022/06/14 22:30:55;;;;;;;1.40;1.30;;;;;;;18.30;51.30;94858.81;2618061;54;20165;-85
2022/06/14 22:33:35;;;;;;;1.50;1.40;;;;;;;18.27;51.66;94848.78;2618281;47;20134;-84
2022/06/14 22:36:09;;;;;;;1.27;1.17;;;;;;;18.46;51.38;94878.97;2617889;54;20188;-77
2022/06/14 22:38:41;;;;;;;0.93;0.93;;;;;;;17.86;52.20;94827.72;2617066;54;20149;-78
2022/06/14 22:41:12;;;;;;;0.50;0.50;;;;;;;18.12;50.30;94867.28;2617861;47;20170;-77
2022/06/14 22:43:41;;;;;;;1.23;1.20;;;;;;;18.47;51.15;94888.28;2617593;54;20150;-78
2022/06/14 22:46:13;;;;;;;4.20;1.33;;;;;;;18.22;51.57;94872.38;2617639;54;20148;-77
2022/06/14 22:48:42;;;;;;;0.60;0.60;;;;;;;18.13;51.39;94848.69;2617598;54;20157;-78
2022/06/14 22:51:12;;;;;;;0.97;0.97;;;;;;;18.35;52.05;94853.81;2617663;47;20153;-78
2022/06/14 22:53:45;;;;;;;0.83;0.83;;;;;;;18.27;49.69;94845.91;2617529;54;20152;-78
2022/06/14 22:56:16;;;;;;;0.83;0.83;;;;;;;18.50;52.28;94863.94;2616886;54;20156;-78
2022/06/14 22:58:47;;;;;;;0.63;0.60;;;;;;;17.99;48.42;94834.25;2617666;54;20140;-77
2022/06/14 23:01:19;;;;;;;1.03;0.97;;;;;;;18.06;50.18;94861.50;2617687;46;20156;-77
2022/06/14 23:03:48;;;;;;;0.80;0.80;;;;;;;18.28;49.71;94881.03;2618629;31;20645;-77
2022/06/14 23:06:18;;;;;;;2.17;0.73;;;;;;;17.73;50.87;94811.84;2617552;47;20157;-77
2022/06/14 23:08:50;;;;;;;1.10;1.10;;;;;;;17.95;48.78;94845.69;2617690;54;20176;-77
2022/06/14 23:11:18;;;;;;;2.90;0.90;;;;;;;18.13;51.08;94863.00;2617564;47;20196;-86
2022/06/14 23:13:47;;;;;;;0.67;0.67;;;;;;;18.23;50.06;94868.06;2617937;54;21040;-86
2022/06/14 23:16:18;;;;;;;0.67;0.67;;;;;;;18.19;48.64;94873.78;2617776;54;20157;-78
2022/06/14 23:18:48;;;;;;;1.47;0.90;;;;;;;18.04;50.58;94861.53;2617524;54;20156;-78
2022/06/14 23:21:17;;;;;;;0.90;0.90;;;;;;;18.06;50.45;94842.16;2617640;47;20173;-78
2022/06/14 23:23:46;;;;;;;0.90;0.90;;;;;;;18.42;49.96;94861.75;2617361;47;20152;-78
2022/06/14 23:26:18;;;;;;;0.60;0.60;;;;;;;17.38;48.11;94748.56;2617455;54;20720;-77
2022/06/14 23:28:47;;;;;;;0.50;0.50;;;;;;;17.94;48.88;94861.41;2617715;47;20145;-78
2022/06/14 23:31:16;;;;;;;1.23;0.80;;;;;;;18.06;50.41;94822.09;2617879;54;20149;-86
2022/06/14 23:33:45;;;;;;;0.87;0.87;;;;;;;17.92;49.39;94824.16;2617825;54;20165;-84
2022/06/14 23:36:13;;;;;;;0.47;0.47;;;;;;;17.44;47.27;94801.56;2617730;47;20156;-78
2022/06/14 23:38:42;;;;;;;0.77;0.77;;;;;;;17.89;46.78;94848.50;2617403;54;20164;-78
2022/06/14 23:41:11;;;;;;;0.60;0.60;;;;;;;17.69;46.62;94844.06;2617508;54;20145;-78
2022/06/14 23:43:42;;;;;;;0.40;0.40;;;;;;;17.52;46.24;94848.16;2617370;47;20199;-78
2022/06/14 23:46:14;;;;;;;0.53;0.53;;;;;;;17.31;45.89;94807.19;2617802;39;20560;-77
2022/06/14 23:48:43;;;;;;;0.70;0.70;;;;;;;17.61;46.14;94829.66;2617543;54;20133;-78
2022/06/14 23:51:11;;;;;;;0.53;0.53;;;;;;;17.53;45.33;94841.00;2617637;47;20668;-86
2022/06/14 23:53:41;;;;;;;1.10;1.10;;;;;;;18.06;49.54;94850.03;2618091;54;20157;-85
2022/06/14 23:56:10;;;;;;;0.60;0.60;;;;;;;17.92;45.45;94852.81;2617364;54;20160;-77
2022/06/14 23:58:42;;;;;;;0.63;0.63;;;;;;;17.73;45.33;94823.31;2617502;47;20168;-78
